Airfield :
LOGIN :

Register | Disclaimer

   EN    FR    IT 

 










Legend :    VFR   Marginal VFR   IFR   Intensive IFR   Very Intensive IFR
Visi :
Ceiling :
>= 8 km
>= 3000ft
5 to 8 km
1000 to 3000 ft
1500m to 5 km
500 to 1000 ft
800 to 1500m
200 to 500 ft
< 800m
< 200 ft
Symbols :   Thunderstorms  Fog  Heavy snow  Heavy precipitations  Wind > 20 kt
SIGMETs :     Misc.  Thunderstorms  Icing  Turbulence  Mountain Waves  Volcanic Ashes







- Airport Elevation : 512 ft
- IATA code : URO
- Download approach charts


LFOP - Rouen Vallée de Seine

CURRENT METAR :
  • 190500Z AUTO 15003KT 1000 0900 R22/1500U BCFG OVC014 02/01 Q1027

EXPIRED METARs :
  • 190430Z AUTO 16002KT 0800 0750 R22/1100N FG OVC011 02/01 Q1026
  • 190400Z AUTO 14003KT 0500 R22/0600N FG BKN010 01/00 Q1026
  • 190330Z AUTO 18003KT 0650 0600 R22/0900U FG BKN010 01/01 Q1026
  • 190300Z AUTO 18003KT 0600 R22/0900U FG NSC 01/01 Q1026
  • 190230Z AUTO 19003KT 0650 R22/0800U FG NSC 01/01 Q1026

TAF TAF LFOP
Valid from the 18 at 18:00 until the 19 at 18:00 UTC


181700Z 1818/1918 28010KT 9999 SCT030
BECMG 1818/1820 VRB03KT
BECMG 1822/1901 3000 BR
TEMPO 1903/1907 0800 BCFG
BECMG 1907/1910 9999 NSW
PROB40
TEMPO 1914/1917 4000 SHRA BKN020TCU
ATIS : +33 2 35 80 80 34
Met : +33 2 32 86 52 80
No reported NOTAMs for that airfield.



MET'MAP, your aeronautical weather chart ! - Copyright ORBIFLY December 2007 - Disclaimer

ORBIFLY MET'MAP TEAM :

Programming & Development : Alexandra Zaïnal
Concept & Development : Baudouin d'Aumeries
Co-Development & Prog : Marc-Olivier Méhu
Technical & hardware support : Manuel Goepfert

Contact : metmap@orbifly.com




SOURCES & CREDITS :

   NOAA